Time;durP1;ratioP1;P1;durP2;ratioP2;P2;SDS_P1;SDS_P2;PMS_P1;PMS_P2;Temp;Humidity;BMP_temperature;BMP_pressure;BME280_temperature;BME280_humidity;BME280_pressure;Samples;Min_cycle;Max_cycle;Signal;HPM_P1;HPM_P2
2022/08/02 00:00:22;;;;;;;3.60;1.95;;;;;;;14.48;75.21;101780.09;5043873;28;20032;-65
2022/08/02 00:02:48;;;;;;;2.85;1.77;;;;;;;14.47;75.41;101783.81;5033738;28;20128;-64
2022/08/02 00:05:14;;;;;;;3.70;2.60;;;;;;;14.47;75.26;101781.06;5027202;28;20035;-66
2022/08/02 00:07:39;;;;;;;4.43;1.80;;;;;;;14.44;75.61;101776.69;5027135;28;20020;-67
2022/08/02 00:10:07;;;;;;;2.72;1.88;;;;;;;14.46;75.56;101771.09;5044085;28;20116;-68
2022/08/02 00:12:33;;;;;;;3.53;2.20;;;;;;;14.44;76.22;101765.72;5042110;28;20055;-67
2022/08/02 00:14:58;;;;;;;2.78;1.90;;;;;;;14.43;76.10;101765.84;5044687;28;20029;-66
2022/08/02 00:17:24;;;;;;;3.90;2.10;;;;;;;14.43;75.66;101774.94;5041008;28;20048;-67
2022/08/02 00:19:49;;;;;;;4.03;1.98;;;;;;;14.44;76.46;101779.41;5041117;28;20029;-67
2022/08/02 00:22:14;;;;;;;2.67;2.17;;;;;;;14.47;76.39;101781.06;5037965;28;20033;-67
2022/08/02 00:24:40;;;;;;;5.82;2.53;;;;;;;14.44;75.10;101775.81;5044332;28;20424;-67
2022/08/02 00:27:07;;;;;;;6.63;2.53;;;;;;;14.40;75.51;101777.00;5039915;28;20400;-66
2022/08/02 00:29:33;;;;;;;7.22;2.97;;;;;;;14.29;74.93;101783.28;5027449;28;20033;-69
2022/08/02 00:31:59;;;;;;;4.75;2.35;;;;;;;14.29;74.86;101783.28;5041193;28;20040;-66
2022/08/02 00:34:24;;;;;;;4.20;1.95;;;;;;;14.33;75.14;101787.56;5037631;28;20033;-68
2022/08/02 00:36:50;;;;;;;3.70;2.58;;;;;;;14.36;75.73;101780.97;5038441;28;20036;-67
2022/08/02 00:39:15;;;;;;;4.57;2.30;;;;;;;14.34;76.25;101780.22;5039513;28;20167;-67
2022/08/02 00:41:47;;;;;;;4.10;2.28;;;;;;;14.32;76.08;101771.25;5043756;28;20052;-67
2022/08/02 00:44:13;;;;;;;4.47;2.13;;;;;;;14.34;76.16;101772.00;5040186;28;20037;-66
2022/08/02 00:46:39;;;;;;;3.13;2.42;;;;;;;14.38;75.69;101774.41;5043974;28;20029;-67
2022/08/02 00:49:04;;;;;;;7.03;3.08;;;;;;;14.36;76.51;101778.22;5041820;28;20404;-67
2022/08/02 00:51:29;;;;;;;6.25;2.30;;;;;;;14.35;76.46;101773.75;5042161;28;20029;-67
2022/08/02 00:53:55;;;;;;;4.10;2.38;;;;;;;14.32;76.41;101765.78;5046853;28;20064;-66
2022/08/02 00:56:20;;;;;;;5.03;2.55;;;;;;;14.33;77.07;101759.31;5044641;28;20067;-66
2022/08/02 00:58:45;;;;;;;5.78;2.30;;;;;;;14.32;76.79;101754.81;5046734;28;20033;-66
2022/08/02 01:01:11;;;;;;;3.58;2.42;;;;;;;14.30;76.72;101755.78;5044621;28;20128;-66
2022/08/02 01:03:36;;;;;;;4.63;2.63;;;;;;;14.29;76.48;101755.91;5044288;28;20042;-67
2022/08/02 01:06:02;;;;;;;4.53;2.65;;;;;;;14.27;76.57;101752.44;5027812;28;20345;-69
2022/08/02 01:08:27;;;;;;;3.55;2.38;;;;;;;14.22;77.09;101755.50;5039910;28;20167;-66
2022/08/02 01:10:52;;;;;;;3.45;2.45;;;;;;;14.19;77.01;101752.97;5038425;28;20029;-69
2022/08/02 01:13:19;;;;;;;8.10;2.80;;;;;;;14.18;76.38;101753.09;5040548;28;20191;-66
2022/08/02 01:15:51;;;;;;;5.03;2.60;;;;;;;14.15;76.74;101739.63;5031046;28;20469;-65
2022/08/02 01:18:46;;;;;;;7.20;2.72;;;;;;;14.15;75.22;101753.31;5029140;28;20029;-68
2022/08/02 01:21:28;;;;;;;7.13;2.88;;;;;;;14.12;75.90;101756.25;5024300;28;20532;-66
2022/08/02 01:24:41;;;;;;;3.22;2.55;;;;;;;14.14;74.97;101757.91;5033030;28;20037;-65
2022/08/02 01:27:19;;;;;;;;;;;;;;;14.20;74.16;101754.72;4969478;28;20057;-65
2022/08/02 01:29:50;;;;;;;3.58;2.80;;;;;;;14.20;75.64;101753.84;5027358;28;19937;-66
2022/08/02 01:32:22;;;;;;;6.90;3.13;;;;;;;14.22;75.67;101757.34;5028424;28;20539;-67
2022/08/02 01:35:02;;;;;;;4.40;3.35;;;;;;;14.21;75.24;101750.13;5028131;28;20033;-65
2022/08/02 01:37:41;;;;;;;8.80;3.05;;;;;;;14.21;75.66;101750.13;5026442;28;20128;-66
2022/08/02 01:40:12;;;;;;;6.50;3.30;;;;;;;14.17;76.31;101749.47;5033689;28;20056;-65
2022/08/02 01:42:43;;;;;;;4.88;3.25;;;;;;;14.18;76.76;101742.16;5034274;28;20049;-67
2022/08/02 01:45:12;;;;;;;7.13;3.03;;;;;;;14.18;76.58;101745.75;5042072;28;20043;-65
2022/08/02 01:47:40;;;;;;;6.90;3.55;;;;;;;14.18;76.64;101744.91;5043141;28;20061;-65
2022/08/02 01:50:07;;;;;;;6.75;3.60;;;;;;;14.16;76.94;101738.63;5033500;28;20133;-67
2022/08/02 01:52:36;;;;;;;5.72;2.80;;;;;;;14.13;76.95;101738.84;5027402;28;20041;-68
2022/08/02 01:55:14;;;;;;;3.55;2.85;;;;;;;14.10;76.44;101737.22;5028770;28;20493;-70
2022/08/02 01:57:45;;;;;;;4.72;3.25;;;;;;;14.07;76.27;101731.97;5027187;28;20179;-65
2022/08/02 02:00:11;;;;;;;5.68;2.78;;;;;;;14.02;76.56;101723.22;5029161;28;20045;-65
2022/08/02 02:02:41;;;;;;;3.80;3.05;;;;;;;13.97;77.40;101729.03;5043214;28;20032;-66
2022/08/02 02:05:10;;;;;;;6.47;3.17;;;;;;;13.95;77.24;101728.28;5038686;28;20033;-67
2022/08/02 02:07:37;;;;;;;3.53;2.63;;;;;;;13.92;76.48;101730.38;5026038;28;20036;-66
2022/08/02 02:10:04;;;;;;;8.15;3.28;;;;;;;13.89;76.00;101730.56;5038986;28;20060;-66
2022/08/02 02:12:33;;;;;;;8.73;3.20;;;;;;;13.87;76.11;101724.34;5040829;28;20029;-66
2022/08/02 02:15:01;;;;;;;6.85;2.78;;;;;;;13.83;76.71;101712.75;5048172;28;20043;-67
2022/08/02 02:17:27;;;;;;;9.40;3.20;;;;;;;13.79;75.78;101714.81;5009500;28;20126;-66
2022/08/02 02:19:56;;;;;;;6.82;2.97;;;;;;;13.79;75.74;101712.09;5033966;28;20499;-65
2022/08/02 02:22:22;;;;;;;9.27;3.45;;;;;;;13.78;76.24;101707.59;5028721;28;20569;-69
2022/08/02 02:24:47;;;;;;;4.43;2.67;;;;;;;13.74;75.97;101702.47;5027715;28;20493;-67
2022/08/02 02:27:15;;;;;;;5.68;3.47;;;;;;;13.72;76.21;101697.13;5038080;28;20041;-65
2022/08/02 02:29:44;;;;;;;4.63;2.85;;;;;;;13.68;76.95;101698.31;5039841;28;20486;-65
2022/08/02 02:32:11;;;;;;;3.58;2.80;;;;;;;13.66;76.72;101693.94;5046237;28;20396;-66
2022/08/02 02:34:39;;;;;;;4.65;2.70;;;;;;;13.62;76.73;101698.78;5014343;28;20057;-65
2022/08/02 02:37:09;;;;;;;6.78;2.63;;;;;;;13.56;76.84;101693.72;5030981;28;20037;-69
2022/08/02 02:39:37;;;;;;;5.35;2.70;;;;;;;13.54;76.89;101687.50;5027604;28;20049;-65
2022/08/02 02:42:07;;;;;;;5.28;2.75;;;;;;;13.49;76.36;101687.84;5027294;28;20037;-67
2022/08/02 02:44:35;;;;;;;8.05;2.60;;;;;;;13.49;76.29;101697.91;5036307;28;20532;-66
2022/08/02 02:47:01;;;;;;;4.47;2.78;;;;;;;13.47;76.13;101699.84;5045547;28;20041;-65
2022/08/02 02:49:31;;;;;;;5.82;2.58;;;;;;;13.42;76.02;101707.50;5027381;28;20037;-67
2022/08/02 02:51:58;;;;;;;5.85;2.75;;;;;;;13.41;76.06;101698.44;5026616;28;20041;-65
2022/08/02 02:54:24;;;;;;;4.85;2.53;;;;;;;13.42;76.71;101702.91;5027308;28;20521;-67
2022/08/02 02:56:52;;;;;;;4.88;2.70;;;;;;;13.40;76.84;101698.53;5035095;28;20028;-66
2022/08/02 02:59:17;;;;;;;4.72;2.70;;;;;;;13.37;76.84;101699.63;5046412;28;20049;-67
2022/08/02 03:01:43;;;;;;;5.78;2.05;;;;;;;13.34;76.61;101699.00;5032794;28;20125;-65
2022/08/02 03:04:11;;;;;;;7.75;2.47;;;;;;;13.30;77.04;101692.00;5027749;28;20033;-67
2022/08/02 03:06:37;;;;;;;3.95;2.97;;;;;;;13.27;77.47;101683.00;5034873;28;20040;-67
2022/08/02 03:09:04;;;;;;;7.43;2.75;;;;;;;13.26;77.26;101686.72;5026929;28;20393;-67
2022/08/02 03:11:30;;;;;;;5.40;2.40;;;;;;;13.26;77.78;101691.31;5026789;28;20045;-65
2022/08/02 03:14:00;;;;;;;5.15;2.67;;;;;;;13.25;77.68;101684.97;5030849;28;20032;-67
2022/08/02 03:16:30;;;;;;;7.15;2.60;;;;;;;13.20;78.23;101686.25;5033156;28;20040;-66
2022/08/02 03:18:56;;;;;;;4.38;2.50;;;;;;;13.16;78.40;101688.31;5036414;28;20046;-71
2022/08/02 03:21:22;;;;;;;5.28;2.53;;;;;;;13.17;78.73;101689.19;5036242;28;20033;-66
2022/08/02 03:23:48;;;;;;;4.35;2.78;;;;;;;13.17;78.10;101687.34;5025241;28;20448;-69
2022/08/02 03:26:14;;;;;;;6.78;2.47;;;;;;;13.18;78.30;101690.94;5030211;28;20025;-67
2022/08/02 03:28:40;;;;;;;7.97;2.92;;;;;;;13.18;78.39;101696.41;5046645;28;20045;-66
2022/08/02 03:31:06;;;;;;;4.63;2.78;;;;;;;13.18;77.86;101689.06;5042781;28;20377;-66
2022/08/02 03:33:32;;;;;;;3.92;2.60;;;;;;;13.16;78.62;101693.78;5045105;28;20361;-66
2022/08/02 03:36:02;;;;;;;7.30;2.72;;;;;;;13.16;78.11;101696.53;5046293;28;20182;-67
2022/08/02 03:38:29;;;;;;;3.47;2.45;;;;;;;13.17;78.48;101683.72;5045469;28;20365;-66
2022/08/02 03:40:56;;;;;;;4.40;2.63;;;;;;;13.17;78.10;101679.13;5036340;28;20481;-67
2022/08/02 03:43:23;;;;;;;7.65;2.70;;;;;;;13.14;79.00;101671.16;5028366;28;20186;-66
2022/08/02 03:45:50;;;;;;;5.53;3.08;;;;;;;13.12;79.04;101680.44;5033902;28;20045;-67
2022/08/02 03:48:16;;;;;;;6.85;2.90;;;;;;;13.12;79.12;101670.41;5036455;28;20453;-67
2022/08/02 03:50:44;;;;;;;4.10;2.20;;;;;;;13.10;78.67;101666.88;5024653;28;20053;-66
2022/08/02 03:53:11;;;;;;;6.65;2.78;;;;;;;13.09;79.03;101665.13;5026704;28;20033;-65
2022/08/02 03:55:38;;;;;;;3.60;2.47;;;;;;;13.12;78.55;101664.94;5026082;28;20037;-67
2022/08/02 03:58:04;;;;;;;7.68;2.38;;;;;;;13.11;78.79;101656.84;5026283;28;20056;-66
2022/08/02 04:00:29;;;;;;;4.95;2.58;;;;;;;13.11;79.10;101662.31;5024990;28;20465;-66
2022/08/02 04:02:55;;;;;;;4.38;2.50;;;;;;;13.11;78.96;101662.31;5026279;28;20463;-66
2022/08/02 04:05:20;;;;;;;6.15;2.58;;;;;;;13.11;79.38;101662.31;5025324;28;20037;-68
2022/08/02 04:07:47;;;;;;;7.65;2.80;;;;;;;13.10;78.89;101649.63;5026026;28;20465;-66
2022/08/02 04:10:14;;;;;;;5.72;2.72;;;;;;;13.12;79.52;101650.41;5028608;28;20164;-66
2022/08/02 04:12:39;;;;;;;5.88;3.00;;;;;;;13.16;78.81;101649.19;5030491;28;20067;-67
2022/08/02 04:15:06;;;;;;;5.68;3.03;;;;;;;13.17;79.08;101656.41;5037982;28;20037;-67
2022/08/02 04:17:36;;;;;;;5.30;3.00;;;;;;;13.18;78.70;101650.81;5042355;28;20396;-67
2022/08/02 04:20:07;;;;;;;7.78;3.30;;;;;;;13.18;79.12;101655.41;5025341;28;20068;-65
2022/08/02 04:22:48;;;;;;;5.15;3.30;;;;;;;13.23;78.83;101647.81;5024538;28;20128;-67
2022/08/02 04:25:15;;;;;;;3.53;2.45;;;;;;;13.22;79.47;101652.41;5025811;28;20033;-69
2022/08/02 04:27:41;;;;;;;6.28;3.00;;;;;;;13.23;79.43;101651.41;5027197;28;20461;-69
2022/08/02 04:30:07;;;;;;;4.32;2.85;;;;;;;13.25;79.09;101659.50;5045143;28;20432;-67
2022/08/02 04:32:34;;;;;;;5.35;2.70;;;;;;;13.26;79.25;101653.94;5033321;28;20338;-68
2022/08/02 04:35:00;;;;;;;6.85;2.92;;;;;;;13.28;79.16;101662.00;5032801;28;20041;-66
2022/08/02 04:37:25;;;;;;;4.93;3.10;;;;;;;13.31;78.28;101659.06;5032741;28;20114;-65
2022/08/02 04:39:51;;;;;;;3.50;3.03;;;;;;;13.37;78.83;101671.41;5045475;28;20235;-67
2022/08/02 04:42:24;;;;;;;7.97;3.05;;;;;;;13.38;78.00;101665.88;5045048;28;20043;-66
2022/08/02 04:44:52;;;;;;;6.88;3.05;;;;;;;13.39;79.24;101664.88;5036856;28;20090;-68
2022/08/02 04:47:19;;;;;;;6.90;3.17;;;;;;;13.39;78.86;101661.28;5024862;28;20726;-67
2022/08/02 04:49:44;;;;;;;5.50;3.17;;;;;;;13.38;78.79;101663.13;5029801;28;20039;-67
2022/08/02 04:52:10;;;;;;;5.30;3.28;;;;;;;13.39;78.88;101658.53;5041553;28;20037;-69
2022/08/02 04:54:35;;;;;;;6.22;3.50;;;;;;;13.37;79.48;101661.34;5045265;28;20504;-65
2022/08/02 04:57:01;;;;;;;6.55;3.10;;;;;;;13.36;79.49;101656.88;5029781;28;20026;-67
2022/08/02 04:59:26;;;;;;;8.32;3.50;;;;;;;13.38;78.84;101652.19;5026204;28;20123;-69
2022/08/02 05:01:51;;;;;;;4.60;3.40;;;;;;;13.41;78.77;101651.97;5041433;28;20032;-66
2022/08/02 05:04:17;;;;;;;5.65;3.17;;;;;;;13.45;79.69;101648.03;5026372;28;20130;-67
2022/08/02 05:06:42;;;;;;;6.22;3.13;;;;;;;13.49;80.21;101652.28;5024080;28;20551;-66
2022/08/02 05:09:07;;;;;;;7.97;3.75;;;;;;;13.53;78.76;101642.88;5025270;28;20069;-66
2022/08/02 05:11:33;;;;;;;6.97;3.30;;;;;;;13.59;78.96;101649.78;5032324;28;20045;-68
2022/08/02 05:13:58;;;;;;;9.63;3.75;;;;;;;13.64;79.12;101657.63;5044962;28;20044;-69
2022/08/02 05:16:26;;;;;;;8.18;3.90;;;;;;;13.66;79.93;101647.44;5042250;28;20028;-69
2022/08/02 05:18:52;;;;;;;6.10;3.80;;;;;;;13.67;79.89;101649.22;5029024;28;20962;-67
2022/08/02 05:21:17;;;;;;;6.72;3.95;;;;;;;13.71;79.14;101648.03;5028398;28;20029;-66
2022/08/02 05:23:43;;;;;;;4.32;3.20;;;;;;;13.74;79.29;101643.19;5045281;28;20029;-66
2022/08/02 05:26:08;;;;;;;7.03;3.22;;;;;;;13.79;79.32;101646.44;5044866;28;20136;-66
2022/08/02 05:28:34;;;;;;;8.60;3.45;;;;;;;13.85;78.77;101641.50;5036190;28;20053;-67
2022/08/02 05:30:59;;;;;;;8.65;3.38;;;;;;;13.88;78.77;101644.91;5028975;28;20044;-66
2022/08/02 05:33:25;;;;;;;4.47;3.35;;;;;;;13.92;79.10;101638.22;5032141;28;20536;-67
2022/08/02 05:35:50;;;;;;;8.35;3.80;;;;;;;13.95;79.51;101627.06;5031260;28;20025;-67
2022/08/02 05:38:15;;;;;;;7.97;3.90;;;;;;;14.00;79.58;101633.06;5027727;28;20115;-66
2022/08/02 05:40:41;;;;;;;6.15;3.90;;;;;;;14.04;79.02;101633.72;5027026;28;20473;-67
2022/08/02 05:43:13;;;;;;;9.48;3.92;;;;;;;14.12;79.16;101631.25;5047632;28;20041;-68
2022/08/02 05:45:39;;;;;;;7.97;3.97;;;;;;;14.19;78.33;101629.81;5047432;28;20036;-68
2022/08/02 05:48:05;;;;;;;7.00;4.47;;;;;;;14.28;78.32;101628.25;5040738;28;20095;-67
2022/08/02 05:50:32;;;;;;;8.95;4.53;;;;;;;14.37;78.39;101637.66;5027865;28;20099;-65
2022/08/02 05:53:38;;;;;;;6.15;4.72;;;;;;;14.41;79.13;101637.31;5045752;28;20029;-68
2022/08/02 05:56:41;;;;;;;10.38;5.47;;;;;;;14.57;78.96;101650.72;5044728;28;20140;-66
2022/08/02 05:59:16;;;;;;;9.80;5.13;;;;;;;14.69;79.17;101654.41;5043729;28;20048;-67
2022/08/02 06:01:43;;;;;;;10.65;7.03;;;;;;;14.88;80.80;101653.84;5043903;28;20098;-67
2022/08/02 06:04:19;;;;;;;10.73;6.65;;;;;;;15.15;80.11;101656.25;5029269;28;20033;-64
2022/08/02 06:06:54;;;;;;;10.23;7.10;;;;;;;15.39;80.98;101657.09;5041085;28;20028;-67
2022/08/02 06:09:21;;;;;;;10.88;7.25;;;;;;;15.57;78.96;101657.44;5047833;28;20072;-66
2022/08/02 06:11:51;;;;;;;13.73;8.30;;;;;;;15.71;79.56;101650.88;5044929;28;20021;-67
2022/08/02 06:14:17;;;;;;;11.23;7.35;;;;;;;15.84;78.88;101657.13;5042401;28;20049;-67
2022/08/02 06:16:43;;;;;;;12.68;7.88;;;;;;;15.94;80.55;101657.25;5041850;28;20029;-67
2022/08/02 06:19:11;;;;;;;11.73;7.78;;;;;;;16.07;81.94;101664.34;5031792;28;20041;-66
2022/08/02 06:21:39;;;;;;;12.88;8.05;;;;;;;16.17;80.58;101663.56;5033006;28;20033;-66
2022/08/02 06:24:05;;;;;;;14.50;9.45;;;;;;;16.26;79.63;101665.56;5047978;28;20028;-66
2022/08/02 06:26:32;;;;;;;12.27;7.72;;;;;;;16.37;78.94;101664.66;5048228;28;20055;-67
2022/08/02 06:28:58;;;;;;;16.63;8.98;;;;;;;16.44;80.16;101655.78;5043192;28;20079;-70
2022/08/02 06:31:23;;;;;;;14.70;8.82;;;;;;;16.50;80.50;101652.50;5037531;28;20044;-67
2022/08/02 06:33:48;;;;;;;12.73;8.85;;;;;;;16.56;80.12;101642.91;5027447;28;20036;-67
2022/08/02 06:36:41;;;;;;;15.15;8.57;;;;;;;16.67;78.88;101644.72;5025961;28;20034;-65
2022/08/02 06:39:22;;;;;;;14.02;8.05;;;;;;;16.75;79.05;101648.59;5029163;28;20136;-68
2022/08/02 06:41:50;;;;;;;16.63;9.48;;;;;;;16.79;79.15;101635.47;5017875;28;20625;-68
2022/08/02 06:44:23;;;;;;;10.55;7.68;;;;;;;16.83;78.46;101640.56;5037221;28;20033;-67
2022/08/02 06:46:48;;;;;;;11.77;8.20;;;;;;;16.88;78.09;101642.00;5037679;28;20110;-69
2022/08/02 06:49:14;;;;;;;12.43;7.55;;;;;;;16.98;78.67;101640.25;5038669;28;20029;-67
2022/08/02 06:51:39;;;;;;;11.32;9.07;;;;;;;17.07;79.12;101643.06;5039166;28;20557;-68
2022/08/02 06:54:04;;;;;;;12.07;8.30;;;;;;;17.13;78.89;101649.03;5040487;28;20119;-66
2022/08/02 06:56:30;;;;;;;12.68;8.68;;;;;;;17.20;78.60;101641.97;5041851;28;20025;-66
2022/08/02 06:58:55;;;;;;;13.32;9.65;;;;;;;17.26;78.36;101646.94;5039571;28;20514;-66
2022/08/02 07:01:21;;;;;;;13.40;9.55;;;;;;;17.35;78.56;101637.88;5031946;28;20148;-67
2022/08/02 07:03:46;;;;;;;13.95;10.55;;;;;;;17.42;78.53;101643.72;5035046;28;20041;-67
2022/08/02 07:06:12;;;;;;;11.63;9.18;;;;;;;17.53;79.05;101644.50;5034039;28;20489;-67
2022/08/02 07:08:37;;;;;;;18.58;10.43;;;;;;;17.62;79.27;101648.28;5043155;28;20033;-67
2022/08/02 07:11:07;;;;;;;16.35;10.43;;;;;;;17.73;78.73;101647.34;5035231;28;20033;-67
2022/08/02 07:13:33;;;;;;;22.50;10.98;;;;;;;17.84;79.62;101642.63;5039997;28;20118;-66
2022/08/02 07:16:00;;;;;;;18.15;11.35;;;;;;;17.97;78.80;101650.66;5034976;28;20086;-65
2022/08/02 07:18:25;;;;;;;22.13;12.15;;;;;;;18.17;78.89;101653.47;5035411;28;20032;-66
2022/08/02 07:20:51;;;;;;;16.05;10.50;;;;;;;18.32;77.37;101639.13;5033406;28;20049;-65
2022/08/02 07:23:17;;;;;;;14.93;10.48;;;;;;;18.48;77.80;101633.09;5037537;28;20480;-65
2022/08/02 07:25:43;;;;;;;20.65;11.20;;;;;;;18.63;76.10;101629.91;5041087;28;20033;-66
2022/08/02 07:28:10;;;;;;;15.45;10.23;;;;;;;18.68;75.12;101633.97;5028576;28;20029;-65
2022/08/02 07:30:35;;;;;;;16.02;9.90;;;;;;;18.73;76.02;101634.44;5027944;28;20038;-67
2022/08/02 07:33:02;;;;;;;16.00;10.18;;;;;;;18.75;75.88;101629.66;5029122;28;20030;-67
2022/08/02 07:35:27;;;;;;;16.45;10.38;;;;;;;18.78;75.89;101626.59;5027870;28;20791;-70
2022/08/02 07:37:52;;;;;;;14.00;9.63;;;;;;;18.83;74.29;101629.78;5035344;28;20036;-70
2022/08/02 07:40:19;;;;;;;11.07;8.20;;;;;;;18.83;75.37;101627.03;5036206;28;20043;-68
2022/08/02 07:42:44;;;;;;;11.18;7.43;;;;;;;18.90;75.06;101615.44;5035386;28;20055;-66
2022/08/02 07:45:11;;;;;;;13.35;7.45;;;;;;;18.93;75.45;101617.88;5045662;28;20041;-67
2022/08/02 07:47:38;;;;;;;13.38;7.13;;;;;;;18.99;75.31;101622.84;5043917;28;20041;-67
2022/08/02 07:50:04;;;;;;;10.30;6.70;;;;;;;19.08;75.25;101624.72;5030832;28;20040;-67
2022/08/02 07:52:30;;;;;;;9.10;6.28;;;;;;;19.15;75.84;101625.84;5027118;28;20041;-67
2022/08/02 07:54:55;;;;;;;12.35;7.28;;;;;;;19.23;74.38;101633.41;5027057;28;20508;-66
2022/08/02 07:57:21;;;;;;;11.52;6.63;;;;;;;19.34;75.01;101636.84;5026154;28;20432;-66
2022/08/02 07:59:46;;;;;;;11.35;6.95;;;;;;;19.53;74.23;101637.81;5026330;28;20038;-67
2022/08/02 08:02:13;;;;;;;9.60;6.55;;;;;;;19.80;74.93;101635.13;5027232;28;20504;-69
2022/08/02 08:04:39;;;;;;;8.30;6.18;;;;;;;20.07;72.42;101630.63;5025281;28;20412;-67
2022/08/02 08:07:08;;;;;;;7.40;5.90;;;;;;;20.49;73.01;101630.13;5027503;28;20041;-67
2022/08/02 08:09:38;;;;;;;7.78;5.80;;;;;;;21.00;69.70;101632.16;5046005;28;20086;-67
2022/08/02 08:12:05;;;;;;;7.68;5.05;;;;;;;21.47;69.65;101634.63;5045248;28;20479;-66
2022/08/02 08:14:30;;;;;;;9.43;4.70;;;;;;;21.87;66.56;101625.69;5043385;28;20507;-67
2022/08/02 08:16:55;;;;;;;8.65;4.50;;;;;;;22.00;64.83;101629.88;5044579;28;20087;-67
2022/08/02 08:19:21;;;;;;;6.22;3.78;;;;;;;22.44;64.15;101627.81;5031521;28;21002;-67
2022/08/02 08:21:46;;;;;;;5.25;3.40;;;;;;;22.56;61.65;101625.56;5026272;28;20037;-65
2022/08/02 08:24:12;;;;;;;4.90;3.08;;;;;;;22.80;61.74;101627.50;5044435;28;20039;-67
2022/08/02 08:26:38;;;;;;;6.65;3.35;;;;;;;22.97;60.17;101622.88;5043369;28;20040;-67
2022/08/02 08:29:05;;;;;;;7.60;3.55;;;;;;;23.41;60.71;101617.81;5040947;28;20032;-66
2022/08/02 08:31:32;;;;;;;4.88;2.78;;;;;;;23.94;59.33;101621.84;5033455;28;20123;-68
2022/08/02 08:33:57;;;;;;;17.23;3.65;;;;;;;24.26;58.41;101615.28;5032437;28;20037;-66
2022/08/02 08:36:23;;;;;;;4.75;3.28;;;;;;;24.63;56.82;101620.13;5024973;28;20018;-67
2022/08/02 08:38:49;;;;;;;5.05;3.35;;;;;;;24.72;55.81;101604.25;5026813;28;20132;-68
2022/08/02 08:41:18;;;;;;;8.70;3.42;;;;;;;24.90;55.65;101613.16;5023130;28;20043;-67
2022/08/02 08:43:44;;;;;;;4.57;2.47;;;;;;;25.34;55.45;101611.56;5043604;28;20552;-67
2022/08/02 08:46:17;;;;;;;3.13;2.58;;;;;;;25.59;50.28;101612.16;5032555;28;20041;-67
2022/08/02 08:48:47;;;;;;;3.53;2.70;;;;;;;25.90;52.19;101623.16;5036067;28;20564;-66
2022/08/02 08:51:18;;;;;;;6.70;2.58;;;;;;;25.73;50.54;101625.22;5026362;28;20048;-69
2022/08/02 08:53:48;;;;;;;5.13;2.33;;;;;;;25.95;51.74;101617.84;5039540;28;20044;-66
2022/08/02 08:56:15;;;;;;;5.57;2.67;;;;;;;25.74;48.16;101623.31;5041125;28;20035;-66
2022/08/02 08:58:42;;;;;;;4.25;2.28;;;;;;;25.88;49.19;101620.56;5023873;28;20021;-66
2022/08/02 09:01:08;;;;;;;3.90;2.35;;;;;;;25.84;49.68;101612.78;5044207;28;20366;-67
2022/08/02 09:03:34;;;;;;;4.60;2.30;;;;;;;26.01;51.82;101614.28;5033950;28;20033;-67
2022/08/02 09:05:59;;;;;;;4.22;1.98;;;;;;;26.19;49.16;101625.03;5023591;28;20041;-67
2022/08/02 09:08:25;;;;;;;4.13;2.00;;;;;;;26.27;48.04;101621.28;5031295;28;20388;-67
2022/08/02 09:10:51;;;;;;;3.08;1.67;;;;;;;26.44;48.27;101620.03;5039812;28;20485;-66
2022/08/02 09:13:21;;;;;;;6.05;2.05;;;;;;;26.58;49.47;101613.53;5047587;28;20041;-66
2022/08/02 09:16:02;;;;;;;3.58;2.33;;;;;;;26.66;49.15;101618.13;5029744;28;20144;-68
2022/08/02 09:18:32;;;;;;;3.75;2.03;;;;;;;26.67;47.30;101617.94;5032732;28;20076;-67
2022/08/02 09:20:59;;;;;;;2.78;1.98;;;;;;;26.88;46.71;101608.69;5028249;28;20472;-68
2022/08/02 09:23:32;;;;;;;6.50;2.10;;;;;;;27.10;47.73;101625.47;5030800;28;20037;-67
2022/08/02 09:26:00;;;;;;;5.88;1.85;;;;;;;27.36;47.40;101624.81;5046208;28;20064;-65
2022/08/02 09:28:31;;;;;;;2.85;2.00;;;;;;;27.48;44.09;101612.03;5044340;28;20456;-67
2022/08/02 09:31:07;;;;;;;7.85;2.00;;;;;;;27.55;42.66;101615.72;5040276;28;20511;-66
2022/08/02 09:33:33;;;;;;;3.70;2.00;;;;;;;27.48;42.74;101608.38;5028062;28;20043;-67
2022/08/02 09:36:13;;;;;;;4.43;1.85;;;;;;;27.77;44.12;101607.28;5028783;28;20044;-66
2022/08/02 09:38:50;;;;;;;3.75;2.30;;;;;;;27.97;42.44;101602.66;5043286;28;20080;-67
2022/08/02 09:41:27;;;;;;;3.97;1.40;;;;;;;28.32;43.82;101602.63;5031550;28;20188;-68
2022/08/02 09:43:54;;;;;;;4.22;1.90;;;;;;;28.22;41.64;101608.59;5032154;28;20483;-66
2022/08/02 09:46:29;;;;;;;4.90;1.90;;;;;;;28.22;41.27;101595.47;5047769;28;20131;-64
2022/08/02 09:48:58;;;;;;;2.53;1.70;;;;;;;28.24;42.97;101603.66;5045804;28;20041;-67
2022/08/02 09:51:26;;;;;;;4.00;1.70;;;;;;;28.28;42.15;101607.75;5033259;28;20041;-67
2022/08/02 09:53:54;;;;;;;3.28;1.63;;;;;;;28.40;43.20;101614.53;5027755;28;20038;-65
2022/08/02 09:56:20;;;;;;;3.90;1.90;;;;;;;28.31;40.84;101606.50;5044409;28;20171;-66
2022/08/02 09:58:46;;;;;;;4.40;1.83;;;;;;;28.22;39.40;101609.47;5044341;28;20037;-67
2022/08/02 10:01:12;;;;;;;2.30;1.50;;;;;;;28.42;42.09;101609.56;5047770;28;20052;-65
2022/08/02 10:03:53;;;;;;;3.97;1.60;;;;;;;28.51;42.57;101612.19;5030027;28;20657;-67
2022/08/02 10:06:18;;;;;;;2.08;1.52;;;;;;;28.51;38.79;101603.78;5026277;28;20124;-66
2022/08/02 10:08:44;;;;;;;3.08;1.50;;;;;;;28.54;35.80;101603.34;5027969;28;20566;-65
2022/08/02 10:11:11;;;;;;;1.92;1.23;;;;;;;28.89;39.50;101609.66;5025879;28;20056;-66
2022/08/02 10:13:37;;;;;;;1.88;1.40;;;;;;;29.15;37.74;101614.47;5042743;28;20503;-66
2022/08/02 10:16:05;;;;;;;2.55;1.40;;;;;;;29.26;36.44;101612.97;5047332;28;20028;-69
2022/08/02 10:18:30;;;;;;;2.83;1.27;;;;;;;29.22;37.60;101606.91;5035145;28;20060;-66
2022/08/02 10:21:00;;;;;;;1.55;1.30;;;;;;;29.25;36.81;101602.81;5038645;28;20454;-67
2022/08/02 10:23:27;;;;;;;2.40;1.40;;;;;;;29.34;37.54;101598.72;5052825;28;20037;-65
2022/08/02 10:25:55;;;;;;;5.13;1.45;;;;;;;29.66;36.58;101597.00;5046660;28;20029;-65
2022/08/02 10:28:30;;;;;;;2.08;1.05;;;;;;;29.83;37.97;101594.56;5041031;28;21911;-66
2022/08/02 10:30:56;;;;;;;3.47;1.33;;;;;;;29.74;33.04;101597.59;5027103;28;20037;-66
2022/08/02 10:33:25;;;;;;;4.32;1.00;;;;;;;29.61;35.21;101591.16;5038173;28;20393;-66
2022/08/02 10:35:53;;;;;;;3.25;1.00;;;;;;;29.44;33.18;101585.13;5027879;28;20037;-65
2022/08/02 10:38:19;;;;;;;3.75;1.30;;;;;;;29.18;33.15;101598.06;5027437;28;20128;-66
2022/08/02 10:40:46;;;;;;;1.88;0.90;;;;;;;29.06;34.28;101594.22;5034685;28;21592;-66
2022/08/02 10:43:12;;;;;;;2.63;1.02;;;;;;;28.99;34.57;101596.13;5029326;28;20050;-66
2022/08/02 10:45:38;;;;;;;1.92;0.90;;;;;;;28.79;33.24;101596.09;5044067;28;20044;-65
2022/08/02 10:48:13;;;;;;;0.95;0.85;;;;;;;28.63;35.88;101588.06;5040823;28;20041;-65
2022/08/02 10:50:44;;;;;;;2.35;1.00;;;;;;;28.64;35.66;101589.81;5029421;28;20769;-67
2022/08/02 10:53:24;;;;;;;4.65;1.20;;;;;;;28.53;36.80;101598.81;5030980;28;20053;-68
2022/08/02 10:55:50;;;;;;;4.57;0.90;;;;;;;28.55;36.79;101597.53;5043973;28;20051;-65
2022/08/02 10:58:20;;;;;;;1.88;1.10;;;;;;;28.56;34.32;101590.88;5046831;28;20041;-65
2022/08/02 11:00:47;;;;;;;2.83;1.10;;;;;;;28.82;37.13;101594.78;5023820;28;20045;-66
2022/08/02 11:03:27;;;;;;;3.42;1.10;;;;;;;29.00;35.81;101588.56;5035937;28;20059;-64
2022/08/02 11:06:10;;;;;;;1.63;0.90;;;;;;;29.38;34.13;101595.28;5031789;28;20044;-67
2022/08/02 11:08:36;;;;;;;2.45;1.20;;;;;;;29.55;35.24;101589.22;5026383;28;20063;-67
2022/08/02 11:11:07;;;;;;;1.70;1.38;;;;;;;29.92;36.19;101598.84;5027088;28;20456;-67
2022/08/02 11:14:01;;;;;;;1.65;1.20;;;;;;;29.87;35.13;101598.66;5041902;28;20041;-67
2022/08/02 11:16:55;;;;;;;2.30;1.10;;;;;;;30.18;35.34;101593.16;5043469;28;20037;-65
2022/08/02 11:19:25;;;;;;;2.05;0.90;;;;;;;30.35;34.61;101592.63;5025492;28;20207;-68
2022/08/02 11:22:05;;;;;;;2.28;0.90;;;;;;;30.41;33.71;101592.63;5034302;28;20139;-66
2022/08/02 11:24:32;;;;;;;1.98;1.00;;;;;;;30.52;32.56;101585.44;5045557;28;20476;-66
2022/08/02 11:27:00;;;;;;;2.88;1.17;;;;;;;30.60;32.01;101579.56;5041035;28;20103;-65
2022/08/02 11:29:48;;;;;;;4.15;1.40;;;;;;;30.79;33.61;101588.09;5025601;28;20382;-66